Time;durP1;ratioP1;P1;durP2;ratioP2;P2;SDS_P1;SDS_P2;PMS_P1;PMS_P2;Temp;Humidity;BMP_temperature;BMP_pressure;BME280_temperature;BME280_humidity;BME280_pressure;Samples;Min_cycle;Max_cycle;Signal;HPM_P1;HPM_P2
2022/05/24 00:01:30;;;;;;;;;;;12.80;99.90;;;;;;5114046;28;19923;-69
2022/05/24 00:03:56;;;;;;;;;;;12.80;99.90;;;;;;5107629;28;19924;-69
2022/05/24 00:06:24;;;;;;;;;;;12.80;99.90;;;;;;5113409;28;19927;-70
2022/05/24 00:08:49;;;;;;;;;;;12.70;99.90;;;;;;5107545;28;20034;-70
2022/05/24 00:11:15;;;;;;;;;;;12.90;99.90;;;;;;5087928;28;19920;-70
2022/05/24 00:13:40;;;;;;;;;;;12.70;99.90;;;;;;5107499;28;19920;-69
2022/05/24 00:16:06;;;;;;;;;;;12.60;99.90;;;;;;5114433;28;19927;-71
2022/05/24 00:18:32;;;;;;;;;;;12.60;99.90;;;;;;5106577;28;19991;-70
2022/05/24 00:20:59;;;;;;;;;;;12.50;99.90;;;;;;5108091;28;19920;-70
2022/05/24 00:23:25;;;;;;;;;;;12.50;99.90;;;;;;5106856;28;19943;-70
2022/05/24 00:25:54;;;;;;;;;;;12.50;99.90;;;;;;5112814;28;19919;-69
2022/05/24 00:28:20;;;;;;;;;;;12.30;99.90;;;;;;5088887;28;20368;-70
2022/05/24 00:30:46;;;;;;;;;;;12.40;99.90;;;;;;5107934;28;19939;-70
2022/05/24 00:33:12;;;;;;;;;;;12.40;99.90;;;;;;5089579;28;19928;-70
2022/05/24 00:35:38;;;;;;;;;;;12.40;99.90;;;;;;5119466;28;19920;-70
2022/05/24 00:38:05;;;;;;;;;;;12.40;99.90;;;;;;5128189;28;20420;-70
2022/05/24 00:40:46;;;;;;;;;;;12.60;99.90;;;;;;5127924;28;20417;-70
2022/05/24 00:43:17;;;;;;;;;;;12.50;99.90;;;;;;5128077;28;19942;-71
2022/05/24 00:45:45;;;;;;;;;;;12.50;99.90;;;;;;5126586;28;19920;-70
2022/05/24 00:48:18;;;;;;;;;;;12.50;99.90;;;;;;5128045;28;19927;-71
2022/05/24 00:50:47;;;;;;;;;;;12.60;99.90;;;;;;5127959;28;19920;-70
2022/05/24 00:53:20;;;;;;;;;;;12.50;99.90;;;;;;5109355;28;19934;-71
2022/05/24 00:55:49;;;;;;;;;;;12.60;99.90;;;;;;5125569;28;20078;-71
2022/05/24 00:58:18;;;;;;;;;;;12.60;99.90;;;;;;5092485;28;19919;-70
2022/05/24 01:00:43;;;;;;;;;;;12.60;99.90;;;;;;5127525;28;19959;-70
2022/05/24 01:03:09;;;;;;;;;;;12.60;99.90;;;;;;5127378;28;19920;-71
2022/05/24 01:05:35;;;;;;;;;;;12.70;99.90;;;;;;5121308;28;20431;-70
2022/05/24 01:08:00;;;;;;;;;;;12.60;99.90;;;;;;5126189;28;19935;-71
2022/05/24 01:10:29;;;;;;;;;;;12.50;99.90;;;;;;5101031;28;20251;-70
2022/05/24 01:13:07;;;;;;;;;;;12.60;99.90;;;;;;5086529;28;19924;-70
2022/05/24 01:15:33;;;;;;;;;;;12.40;99.90;;;;;;5121731;28;19967;-71
2022/05/24 01:17:59;;;;;;;;;;;12.40;99.90;;;;;;5106704;28;19919;-71
2022/05/24 01:20:24;;;;;;;;;;;;;;;;;;5088691;28;19924;-71
2022/05/24 01:22:50;;;;;;;;;;;;;;;;;;5106127;28;19938;-71
2022/05/24 01:25:16;;;;;;;;;;;;;;;;;;5122533;28;19926;-71
2022/05/24 01:27:42;;;;;;;;;;;12.10;99.90;;;;;;5127178;28;19948;-70
2022/05/24 01:30:08;;;;;;;;;;;12.10;99.90;;;;;;5108877;28;19919;-71
2022/05/24 01:38:07;;;;;;;;;;;11.90;99.90;;;;;;5126921;28;19942;-71
2022/05/24 01:40:33;;;;;;;;;;;11.80;99.90;;;;;;5123657;28;19959;-72
2022/05/24 01:42:58;;;;;;;;;;;11.70;99.90;;;;;;5108241;28;19920;-71
2022/05/24 01:45:27;;;;;;;;;;;11.70;99.90;;;;;;5108480;28;19928;-72
2022/05/24 01:47:58;;;;;;;;;;;11.70;99.90;;;;;;5108301;28;19950;-71
2022/05/24 01:50:25;;;;;;;;;;;11.70;99.90;;;;;;5125137;28;19920;-71
2022/05/24 01:52:54;;;;;;;;;;;11.60;99.90;;;;;;5126178;28;19924;-71
2022/05/24 01:55:22;;;;;;;;;;;11.60;99.90;;;;;;5126883;28;19920;-71
2022/05/24 01:57:52;;;;;;;;;;;11.60;99.90;;;;;;5126484;28;20272;-72
2022/05/24 02:00:18;;;;;;;;;;;11.60;99.90;;;;;;5126632;28;19919;-72
2022/05/24 02:02:43;;;;;;;;;;;11.50;99.90;;;;;;5105499;28;19923;-71
2022/05/24 02:05:09;;;;;;;;;;;11.50;99.90;;;;;;5107923;28;19989;-72
2022/05/24 02:07:35;;;;;;;;;;;11.50;99.90;;;;;;5126319;28;19919;-72
2022/05/24 02:10:00;;;;;;;;;;;11.80;99.90;;;;;;5126267;28;19926;-72
2022/05/24 02:12:32;;;;;;;;;;;11.50;99.90;;;;;;5122848;28;20454;-72
2022/05/24 02:15:00;;;;;;;;;;;11.60;99.90;;;;;;5126415;28;19920;-72
2022/05/24 02:17:39;;;;;;;;;;;11.50;99.90;;;;;;5126116;28;19927;-72
2022/05/24 02:20:05;;;;;;;;;;;11.60;99.90;;;;;;5126211;28;19924;-73
2022/05/24 02:22:30;;;;;;;;;;;11.60;99.90;;;;;;5105991;28;19970;-72
2022/05/24 02:25:02;;;;;;;;;;;11.60;99.90;;;;;;5125958;28;19923;-72
2022/05/24 02:27:28;;;;;;;;;;;11.70;99.90;;;;;;5107653;28;19930;-72
2022/05/24 02:29:54;;;;;;;;;;;11.70;99.90;;;;;;5126089;28;19920;-73
2022/05/24 02:32:20;;;;;;;;;;;11.80;99.90;;;;;;5106276;28;19923;-73
2022/05/24 02:34:45;;;;;;;;;;;11.80;99.90;;;;;;5125347;28;19919;-73
2022/05/24 02:37:11;;;;;;;;;;;11.90;99.90;;;;;;5125951;28;19927;-73
2022/05/24 02:41:28;;;;;;;;;;;11.90;99.90;;;;;;5125686;28;19927;-72
2022/05/24 02:42:22;;;;;;;;;;;12.00;99.90;;;;;;5103818;28;19926;-73
2022/05/24 02:44:48;;;;;;;;;;;12.00;99.90;;;;;;5125951;28;20374;-73
2022/05/24 02:47:16;;;;;;;;;;;11.90;99.90;;;;;;5125843;28;19969;-72
2022/05/24 02:49:41;;;;;;;;;;;12.00;99.90;;;;;;5125815;28;19920;-71
2022/05/24 02:52:07;;;;;;;;;;;12.00;99.90;;;;;;5123223;28;19927;-72
2022/05/24 02:54:33;;;;;;;;;;;12.10;99.90;;;;;;5124717;28;19926;-72
2022/05/24 02:57:01;;;;;;;;;;;12.00;99.90;;;;;;5125846;28;19951;-72
2022/05/24 02:59:27;;;;;;;;;;;12.10;99.90;;;;;;5125657;28;19926;-72
2022/05/24 03:01:52;;;;;;;;;;;12.10;99.90;;;;;;5124051;28;19919;-72
2022/05/24 03:04:18;;;;;;;;;;;12.30;99.90;;;;;;5106262;28;19920;-72
2022/05/24 03:09:34;;;;;;;;;;;12.20;99.90;;;;;;5125702;28;20062;-71
2022/05/24 03:14:44;;;;;;;;;;;12.10;99.90;;;;;;5125741;28;19966;-72
2022/05/24 03:17:09;;;;;;;;;;;12.10;99.90;;;;;;5125560;28;20402;-71
2022/05/24 03:19:35;;;;;;;;;;;;;;;;;;5107359;28;19919;-72
2022/05/24 03:22:01;;;;;;;;;;;;;;;;;;5123909;28;19973;-72
2022/05/24 03:24:27;;;;;;;;;;;;;;;;;;5125520;28;19920;-72
2022/05/24 03:26:53;;;;;;;;;;;;;;;;;;5125515;28;19926;-71
2022/05/24 03:29:19;;;;;;;;;;;;;;;;;;5125443;28;19919;-72
2022/05/24 03:31:45;;;;;;;;;;;;;;;;;;5123241;28;19919;-72
2022/05/24 03:34:11;;;;;;;;;;;;;;;;;;5125202;28;19926;-72
2022/05/24 03:36:37;;;;;;;;;;;;;;;;;;5125601;28;20010;-73
2022/05/24 03:39:03;;;;;;;;;;;;;;;;;;5106840;28;19943;-72
2022/05/24 03:41:29;;;;;;;;;;;;;;;;;;5123707;28;19928;-72
2022/05/24 03:43:55;;;;;;;;;;;;;;;;;;5125337;28;19978;-72
2022/05/24 03:46:21;;;;;;;;;;;;;;;;;;5128720;28;19920;-71
2022/05/24 03:48:47;;;;;;;;;;;;;;;;;;5110696;28;19941;-71
2022/05/24 03:51:13;;;;;;;;;;;;;;;;;;5127264;28;19919;-71
2022/05/24 03:53:39;;;;;;;;;;;;;;;;;;5127580;28;20001;-71
2022/05/24 03:56:05;;;;;;;;;;;;;;;;;;5129131;28;19924;-71
2022/05/24 03:58:31;;;;;;;;;;;;;;;;;;5128993;28;19987;-70
2022/05/24 04:00:57;;;;;;;;;;;;;;;;;;5127549;28;19965;-71
2022/05/24 04:03:23;;;;;;;;;;;;;;;;;;5128531;28;20023;-71
2022/05/24 04:05:49;;;;;;;;;;;;;;;;;;5128651;28;19930;-71
2022/05/24 04:08:15;;;;;;;;;;;;;;;;;;5110213;28;19920;-71
2022/05/24 04:10:41;;;;;;;;;;;;;;;;;;5108605;28;19924;-71
2022/05/24 04:13:07;;;;;;;;;;;;;;;;;;5110431;28;19928;-71
2022/05/24 04:15:33;;;;;;;;;;;;;;;;;;5128548;28;19926;-70
2022/05/24 04:17:59;;;;;;;;;;;;;;;;;;5128392;28;19920;-71
2022/05/24 04:20:25;;;;;;;;;;;;;;;;;;5102636;28;19976;-71
2022/05/24 04:22:52;;;;;;;;;;;;;;;;;;5123471;28;19924;-72
2022/05/24 04:25:18;;;;;;;;;;;;;;;;;;5108069;28;19920;-70
2022/05/24 04:27:44;;;;;;;;;;;;;;;;;;5107952;28;19942;-70
2022/05/24 04:30:10;;;;;;;;;;;;;;;;;;5110765;28;19919;-71
2022/05/24 04:32:36;;;;;;;;;;;;;;;;;;5127950;28;20056;-71
2022/05/24 04:35:02;;;;;;;;;;;;;;;;;;5128091;28;19915;-71
2022/05/24 04:37:28;;;;;;;;;;;;;;;;;;5109709;28;20003;-70
2022/05/24 04:39:54;;;;;;;;;;;;;;;;;;5125251;28;20361;-71
2022/05/24 04:42:20;;;;;;;;;;;;;;;;;;5107557;28;19920;-70
2022/05/24 04:44:46;;;;;;;;;;;;;;;;;;5107444;28;19926;-71
2022/05/24 04:47:13;;;;;;;;;;;;;;;;;;5107311;28;20003;-70
2022/05/24 04:49:39;;;;;;;;;;;;;;;;;;5107604;28;19920;-71
2022/05/24 04:52:05;;;;;;;;;;;;;;;;;;5125422;28;19920;-71
2022/05/24 04:54:31;;;;;;;;;;;;;;;;;;5127737;28;19935;-71
2022/05/24 04:56:57;;;;;;;;;;;;;;;;;;5127384;28;19951;-71
2022/05/24 04:59:23;;;;;;;;;;;;;;;;;;5124792;28;19919;-71
2022/05/24 05:01:52;;;;;;;;;;;;;;;;;;5126236;28;19920;-70
2022/05/24 05:04:18;;;;;;;;;;;;;;;;;;5127289;28;20391;-71
2022/05/24 05:06:44;;;;;;;;;;;;;;;;;;5127631;28;19946;-71
2022/05/24 05:09:10;;;;;;;;;;;;;;;;;;5107122;28;19934;-71
2022/05/24 05:11:36;;;;;;;;;;;;;;;;;;5127549;28;20181;-70
2022/05/24 05:14:02;;;;;;;;;;;;;;;;;;5127401;28;19919;-71
2022/05/24 05:16:28;;;;;;;;;;;;;;;;;;5127346;28;20006;-71
2022/05/24 05:18:54;;;;;;;;;;;;;;;;;;5127156;28;19927;-71
2022/05/24 05:21:20;;;;;;;;;;;;;;;;;;5106194;28;19930;-70
2022/05/24 05:23:46;;;;;;;;;;;;;;;;;;5124105;28;20302;-71
2022/05/24 05:26:14;;;;;;;;;;;;;;;;;;5109067;28;19919;-71
2022/05/24 05:28:40;;;;;;;;;;;;;;;;;;5127134;28;19927;-71
2022/05/24 05:31:26;;;;;;;;;;;;;;;;;;5108842;28;20038;-71
2022/05/24 05:33:52;;;;;;;;;;;;;;;;;;5125356;28;19987;-70
2022/05/24 05:36:18;;;;;;;;;;;;;;;;;;5125763;28;19919;-70
2022/05/24 05:38:46;;;;;;;;;;;;;;;;;;5126801;28;20128;-71
2022/05/24 05:41:12;;;;;;;;;;;;;;;;;;5124017;28;19919;-71
2022/05/24 05:43:37;;;;;;;;;;;;;;;;;;5126482;28;19927;-71
2022/05/24 05:46:04;;;;;;;;;;;;;;;;;;5126002;28;19959;-71
2022/05/24 05:48:30;;;;;;;;;;;;;;;;;;5126768;28;19926;-71
2022/05/24 05:50:55;;;;;;;;;;;;;;;;;;5124276;28;19920;-71
2022/05/24 05:53:21;;;;;;;;;;;;;;;;;;5105273;28;19930;-71
2022/05/24 05:55:47;;;;;;;;;;;;;;;;;;5108393;28;19919;-71
2022/05/24 05:58:13;;;;;;;;;;;;;;;;;;5111236;28;19987;-70
2022/05/24 06:00:39;;;;;;;;;;;;;;;;;;5102683;28;19920;-71
2022/05/24 06:03:05;;;;;;;;;;;;;;;;;;5106566;28;19919;-71
2022/05/24 06:05:31;;;;;;;;;;;;;;;;;;5100283;28;20270;-71
2022/05/24 06:07:57;;;;;;;;;;;;;;;;;;5100423;28;19932;-72
2022/05/24 06:10:23;;;;;;;;;;;;;;;;;;5090202;28;19983;-71
2022/05/24 06:12:49;;;;;;;;;;;;;;;;;;5107704;28;19927;-72
2022/05/24 06:15:15;;;;;;;;;;;;;;;;;;5105824;28;19993;-74
2022/05/24 06:17:41;;;;;;;;;;;;;;;;;;5087315;28;19927;-73
2022/05/24 06:20:07;;;;;;;;;;;;;;;;;;5120536;28;19920;-68
2022/05/24 06:22:33;;;;;;;;;;;;;;;;;;5117086;28;19920;-68
2022/05/24 06:24:59;;;;;;;;;;;;;;;;;;5104356;28;19919;-66
2022/05/24 06:27:25;;;;;;;;;;;;;;;;;;5104909;28;19963;-67
2022/05/24 06:29:51;;;;;;;;;;;;;;;;;;5085892;28;19927;-68
2022/05/24 06:32:17;;;;;;;;;;;;;;;;;;5097272;28;19920;-67
2022/05/24 06:34:42;;;;;;;;;;;;;;;;;;5107171;28;19942;-67
2022/05/24 06:37:08;;;;;;;;;;;;;;;;;;5105319;28;19920;-67
2022/05/24 06:39:34;;;;;;;;;;;;;;;;;;5102379;28;19970;-67
2022/05/24 06:42:00;;;;;;;;;;;;;;;;;;5093738;28;19947;-67
2022/05/24 06:44:26;;;;;;;;;;;;;;;;;;5103107;28;19920;-67
2022/05/24 06:46:52;;;;;;;;;;;;;;;;;;5106167;28;19920;-67
2022/05/24 06:49:18;;;;;;;;;;;;;;;;;;5088148;28;19920;-68
2022/05/24 06:51:44;;;;;;;;;;;;;;;;;;5103717;28;19920;-68
2022/05/24 06:54:10;;;;;;;;;;;;;;;;;;5113301;28;19982;-67
2022/05/24 06:56:36;;;;;;;;;;;;;;;;;;5107498;28;19955;-67
2022/05/24 07:04:31;;;;;;;;;;;;;;;;;;5089723;28;19924;-67
2022/05/24 07:06:57;;;;;;;;;;;;;;;;;;5103036;28;19920;-67
2022/05/24 07:09:28;;;;;;;;;;;;;;;;;;5102755;28;19927;-67
2022/05/24 07:11:54;;;;;;;;;;;;;;;;;;5100735;28;19972;-68
2022/05/24 07:14:20;;;;;;;;;;;;;;;;;;5100001;28;20357;-68
2022/05/24 07:16:46;;;;;;;;;;;;;;;;;;5104135;28;19966;-67
2022/05/24 07:19:12;;;;;;;;;;;;;;;;;;5114789;28;19927;-67
2022/05/24 07:21:38;;;;;;;;;;;;;;;;;;5129622;28;19919;-67
2022/05/24 07:24:04;;;;;;;;;;;;;;;;;;5129393;28;19972;-68
2022/05/24 07:26:30;;;;;;;;;;;;;;;;;;5113492;28;19947;-68
2022/05/24 07:28:56;;;;;;;;;;;;;;;;;;5100801;28;19935;-68
2022/05/24 07:31:22;;;;;;;;;;;;;;;;;;5116532;28;19928;-67
2022/05/24 07:33:48;;;;;;;;;;;;;;;;;;5108521;28;19920;-67
2022/05/24 07:36:14;;;;;;;;;;;;;;;;;;5108986;28;19938;-67
2022/05/24 07:38:40;;;;;;;;;;;;;;;;;;5108270;28;19921;-68
2022/05/24 07:46:35;;;;;;;;;;;;;;;;;;5103061;28;19983;-68
2022/05/24 07:49:01;;;;;;;;;;;;;;;;;;5107299;28;19926;-67
2022/05/24 07:51:27;;;;;;;;;;;;;;;;;;5106294;28;19920;-68
2022/05/24 07:53:53;;;;;;;;;;;;;;;;;;5090404;28;20462;-67
2022/05/24 07:56:19;;;;;;;;;;;;;;;;;;5116650;28;19951;-68
2022/05/24 07:58:45;;;;;;;;;;;;;;;;;;5103886;28;19920;-68
2022/05/24 08:01:11;;;;;;;;;;;;;;;;;;5088375;28;20007;-68
2022/05/24 08:03:38;;;;;;;;;;;;;;;;;;5108660;28;20813;-68
2022/05/24 08:06:04;;;;;;;;;;;;;;;;;;5104743;28;19920;-68
2022/05/24 08:08:30;;;;;;;;;;;;;;;;;;5106514;28;20006;-68
2022/05/24 08:10:56;;;;;;;;;;;;;;;;;;5089175;28;20301;-69
2022/05/24 08:13:22;;;;;;;;;;;;;;;;;;5120020;28;19963;-67
2022/05/24 08:15:48;;;;;;;;;;;;;;;;;;5110669;28;20442;-67
2022/05/24 08:18:14;;;;;;;;;;;;;;;;;;5125263;28;19984;-67
2022/05/24 08:20:40;;;;;;;;;;;;;;;;;;5108295;28;19947;-67
2022/05/24 08:23:06;;;;;;;;;;;;;;;;;;5108113;28;19920;-67
2022/05/24 08:25:33;;;;;;;;;;;;;;;;;;5116762;28;19920;-67
2022/05/24 08:28:02;;;;;;;;;;;;;;;;;;5086952;28;19924;-67
2022/05/24 08:30:28;;;;;;;;;;;;;;;;;;5105601;28;19927;-67
2022/05/24 08:32:56;;;;;;;;;;;;;;;;;;5118641;28;20288;-67
2022/05/24 08:35:22;;;;;;;;;;;;;;;;;;5105802;28;19927;-67
2022/05/24 08:37:48;;;;;;;;;;;;;;;;;;5103544;28;19924;-67
2022/05/24 08:40:14;;;;;;;;;;;;;;;;;;5104965;28;19927;-67
2022/05/24 08:42:40;;;;;;;;;;;;;;;;;;5106818;28;19957;-66
2022/05/24 08:50:35;;;;;;;;;;;;;;;;;;5103243;28;19994;-66
2022/05/24 08:53:00;;;;;;;;;;;;;;;;;;5091568;28;19924;-66
2022/05/24 08:55:27;;;;;;;;;;;;;;;;;;5103414;28;19928;-67
2022/05/24 08:57:53;;;;;;;;;;;;;;;;;;5104044;28;19927;-67
2022/05/24 09:00:18;;;;;;;;;;;;;;;;;;5090538;28;19919;-67
2022/05/24 09:02:45;;;;;;;;;;;;;;;;;;5105555;28;20002;-67
2022/05/24 09:05:11;;;;;;;;;;;;;;;;;;5103775;28;19924;-65
2022/05/24 09:07:37;;;;;;;;;;;;;;;;;;5111244;28;19927;-67
2022/05/24 09:10:03;;;;;;;;;;;;;;;;;;5085652;28;19920;-67
2022/05/24 09:12:29;;;;;;;;;;;;;;;;;;5099213;28;20410;-67
2022/05/24 09:14:55;;;;;;;;;;;;;;;;;;5115854;28;19927;-69
2022/05/24 09:17:21;;;;;;;;;;;;;;;;;;5127305;28;20014;-68
2022/05/24 09:19:47;;;;;;;;;;;;;;;;;;5109053;28;19964;-70
2022/05/24 09:22:13;;;;;;;;;;;;;;;;;;5127316;28;19927;-69
2022/05/24 09:24:39;;;;;;;;;;;;;;;;;;5127083;28;19923;-68
2022/05/24 09:27:05;;;;;;;;;;;;;;;;;;5110106;28;19942;-68
2022/05/24 09:29:31;;;;;;;;;;;;;;;;;;5104011;28;19930;-68
2022/05/24 09:31:57;;;;;;;;;;;;;;;;;;5102888;28;20338;-67
2022/05/24 09:34:23;;;;;;;;;;;;;;;;;;5105768;28;19987;-68
2022/05/24 09:36:49;;;;;;;;;;;;;;;;;;5086528;28;19927;-68
2022/05/24 09:39:15;;;;;;;;;;;;;;;;;;5087829;28;20291;-68
2022/05/24 09:41:41;;;;;;;;;;;;;;;;;;5105134;28;19927;-69
2022/05/24 09:44:07;;;;;;;;;;;;;;;;;;5104972;28;19935;-68
2022/05/24 09:46:33;;;;;;;;;;;;;;;;;;5103265;28;19920;-69
2022/05/24 09:48:59;;;;;;;;;;;;;;;;;;5098107;28;19924;-75
2022/05/24 09:51:25;;;;;;;;;;;;;;;;;;5108221;28;19930;-73
2022/05/24 09:53:51;;;;;;;;;;;;;;;;;;5106843;28;19993;-75
2022/05/24 09:56:17;;;;;;;;;;;;;;;;;;5108378;28;19927;-76
2022/05/24 09:58:43;;;;;;;;;;;;;;;;;;5107200;28;19919;-75
2022/05/24 10:01:09;;;;;;;;;;;;;;;;;;5096764;28;19928;-73
2022/05/24 10:03:35;;;;;;;;;;;;;;;;;;5108457;28;19939;-77
2022/05/24 10:06:01;;;;;;;;;;;;;;;;;;5106699;28;19924;-77
2022/05/24 10:08:27;;;;;;;;;;;;;;;;;;5104430;28;19944;-76
2022/05/24 10:10:56;;;;;;;;;;;;;;;;;;5083844;28;19928;-68
2022/05/24 10:13:22;;;;;;;;;;;;;;;;;;5107708;28;19966;-68
2022/05/24 10:15:48;;;;;;;;;;;;;;;;;;5102729;28;20380;-68
2022/05/24 10:18:14;;;;;;;;;;;;;;;;;;5104204;28;20243;-68
2022/05/24 10:20:40;;;;;;;;;;;;;;;;;;5102867;28;19928;-75
2022/05/24 10:23:06;;;;;;;;;;;;;;;;;;5088787;28;19967;-67
2022/05/24 10:25:32;;;;;;;;;;;;;;;;;;5097563;28;20430;-68
2022/05/24 10:27:59;;;;;;;;;;;;;;;;;;5097580;28;19919;-68
2022/05/24 10:30:27;;;;;;;;;;;;;;;;;;5093543;28;19931;-67
2022/05/24 10:38:22;;;;;;;;;;;;;;;;;;5093031;28;20394;-69
2022/05/24 10:40:48;;;;;;;;;;;;;;;;;;5081540;28;20368;-71
2022/05/24 10:43:14;;;;;;;;;;;;;;;;;;5097929;28;19927;-72
2022/05/24 10:45:50;;;;;;;;;;;;;;;;;;5079658;28;19928;-69
2022/05/24 10:48:16;;;;;;;;;;;;;;;;;;5097882;28;19920;-71
2022/05/24 10:50:42;;;;;;;;;;;;;;;;;;5091203;28;19928;-69
2022/05/24 10:53:08;;;;;;;;;;;;;;;;;;5102848;28;19924;-72
2022/05/24 10:55:36;;;;;;;;;;;;;;;;;;5073373;28;19920;-68
2022/05/24 10:58:02;;;;;;;;;;;;;;;;;;5095124;28;19931;-67
2022/05/24 11:00:28;;;;;;;;;;;;;;;;;;5084288;28;19924;-67
2022/05/24 11:02:54;;;;;;;;;;;;;;;;;;5100604;28;19990;-66
2022/05/24 11:05:20;;;;;;;;;;;;;;;;;;5076608;28;19927;-73
2022/05/24 11:07:47;;;;;;;;;;;;;;;;;;5095961;28;19939;-72
2022/05/24 11:10:13;;;;;;;;;;;;;;;;;;5097736;28;19920;-71
2022/05/24 11:12:39;;;;;;;;;;;;;;;;;;5100018;28;20015;-69
2022/05/24 11:15:05;;;;;;;;;;;;;;;;;;5111129;28;20402;-69
2022/05/24 11:17:31;;;;;;;;;;;;;;;;;;5106720;28;19966;-72
2022/05/24 11:19:57;;;;;;;;;;;;;;;;;;5087894;28;19955;-70
2022/05/24 11:22:23;;;;;;;;;;;;;;;;;;5103749;28;20395;-73
2022/05/24 11:24:49;;;;;;;;;;;;;;;;;;5089207;28;19942;-74
2022/05/24 11:27:15;;;;;;;;;;;;;;;;;;5096558;28;19995;-72
2022/05/24 11:29:41;;;;;;;;;;;;;;;;;;5104189;28;19924;-73
2022/05/24 11:32:07;;;;;;;;;;;;;;;;;;5110259;28;19926;-68
2022/05/24 11:34:33;;;;;;;;;;;;;;;;;;5110730;28;19952;-78
2022/05/24 11:36:59;;;;;;;;;;;;;;;;;;5087856;28;19924;-75
2022/05/24 11:39:25;;;;;;;;;;;;;;;;;;5108257;28;19939;-70
2022/05/24 11:41:51;;;;;;;;;;;;;;;;;;5095335;28;19934;-75
2022/05/24 11:44:17;;;;;;;;;;;;;;;;;;5120326;28;19926;-70
2022/05/24 11:46:46;;;;;;;;;;;;;;;;;;5112655;28;19920;-72
2022/05/24 11:49:12;;;;;;;;;;;;;;;;;;5088206;28;19966;-73
2022/05/24 11:51:39;;;;;;;;;;;;;;;;;;5109613;28;19924;-67
2022/05/24 11:54:05;;;;;;;;;;;;;;;;;;5087807;28;20007;-69
2022/05/24 11:56:31;;;;;;;;;;;;;;;;;;5118746;28;19924;-70
2022/05/24 11:58:57;;;;;;;;;;;;;;;;;;5087017;28;19924;-69
2022/05/24 12:01:23;;;;;;;;;;;;;;;;;;5099018;28;19967;-75
2022/05/24 12:09:18;;;;;;;;;;;;;;;;;;5080326;28;19932;-74
2022/05/24 12:11:44;;;;;;;;;;;;;;;;;;5102406;28;19920;-75
2022/05/24 12:14:10;;;;;;;;;;;;;;;;;;5100222;28;19951;-69
2022/05/24 12:16:36;;;;;;;;;;;;;;;;;;5080954;28;19920;-72
2022/05/24 12:19:03;;;;;;;;;;;;;;;;;;5110099;28;19964;-71
2022/05/24 12:21:29;;;;;;;;;;;;;;;;;;5106574;28;19928;-70
2022/05/24 12:23:55;;;;;;;;;;;;;;;;;;5102835;28;19931;-66
2022/05/24 12:26:20;;;;;;;;;;;;;;;;;;5098537;28;19935;-67
2022/05/24 12:28:49;;;;;;;;;;;;;;;;;;5103428;28;19930;-69
2022/05/24 12:31:15;;;;;;;;;;;;;;;;;;5083515;28;19983;-67
2022/05/24 12:33:41;;;;;;;;;;;;;;;;;;5102160;28;19934;-68
2022/05/24 12:36:07;;;;;;;;;;;;;;;;;;5109192;28;20003;-68
2022/05/24 12:38:33;;;;;;;;;;;;;;;;;;5102396;28;19920;-74
2022/05/24 12:40:59;;;;;;;;;;;;;;;;;;5117622;27;19925;-71
2022/05/24 12:43:25;;;;;;;;;;;;;;;;;;5113547;27;19920;-70
2022/05/24 12:45:51;;;;;;;;;;;;;;;;;;5094152;28;20011;-72
2022/05/24 12:48:17;;;;;;;;;;;;;;;;;;5091911;28;20501;-73
2022/05/24 12:50:43;;;;;;;;;;;;;;;;;;5108647;28;19926;-70
2022/05/24 12:53:09;;;;;;;;;;;;;;;;;;5093457;28;19952;-73
2022/05/24 12:58:19;;;;;;;;;;;;;;;;;;5094230;28;19951;-71
2022/05/24 13:00:45;;;;;;;;;;;;;;;;;;5106954;28;19927;-71
2022/05/24 13:03:11;;;;;;;;;;;;;;;;;;5115002;28;19920;-65
2022/05/24 13:05:38;;;;;;;;;;;;;;;;;;5107383;28;20007;-68
2022/05/24 13:08:04;;;;;;;;;;;;;;;;;;5116219;28;19927;-67
2022/05/24 13:10:30;;;;;;;;;;;;;;;;;;5107510;28;19920;-68
2022/05/24 13:12:56;;;;;;;;;;;;;;;;;;5106821;28;19920;-69
2022/05/24 13:15:22;;;;;;;;;;;;;;;;;;5106785;28;20011;-68
2022/05/24 13:17:48;;;;;;;;;;;;;;;;;;5106399;28;20418;-66
2022/05/24 13:20:14;;;;;;;;;;;;;;;;;;5090584;28;19920;-68
2022/05/24 13:22:39;;;;;;;;;;;;;;;;;;5088361;28;19923;-68
2022/05/24 13:25:06;;;;;;;;;;;;;;;;;;5110203;28;19952;-61
2022/05/24 13:27:31;;;;;;;;;;;;;;;;;;5105847;28;19920;-66
2022/05/24 13:35:27;;;;;;;;;;;;;;;;;;5106166;28;19931;-62
2022/05/24 13:37:53;;;;;;;;;;;;;;;;;;5079825;28;19983;-64
2022/05/24 13:40:20;;;;;;;;;;;;;;;;;;5095830;28;19947;-62
2022/05/24 13:42:46;;;;;;;;;;;;;;;;;;5089090;28;19924;-65
2022/05/24 13:45:13;;;;;;;;;;;;;;;;;;5125406;27;19945;-65
2022/05/24 13:47:39;;;;;;;;;;;;;;;;;;5105572;28;19950;-65
2022/05/24 13:50:05;;;;;;;;;;;;;;;;;;5111062;28;19920;-69
2022/05/24 13:52:31;;;;;;;;;;;;;;;;;;5075908;28;19928;-69
2022/05/24 13:54:57;;;;;;;;;;;;;;;;;;5094296;28;19919;-64
2022/05/24 13:57:23;;;;;;;;;;;;;;;;;;5097952;28;19977;-67
2022/05/24 13:59:49;;;;;;;;;;;;;;;;;;5103534;28;19920;-67
2022/05/24 14:02:15;;;;;;;;;;;;;;;;;;5104586;28;20015;-67
2022/05/24 14:04:41;;;;;;;;;;;;;;;;;;5104216;28;19931;-67
2022/05/24 14:07:07;;;;;;;;;;;;;;;;;;5084356;28;20260;-67
2022/05/24 14:09:35;;;;;;;;;;;;;;;;;;5100983;28;19932;-67
2022/05/24 14:12:01;;;;;;;;;;;;;;;;;;5102376;28;19987;-67
2022/05/24 14:14:31;;;;;;;;;;;;;;;;;;5102692;28;19920;-67
2022/05/24 14:16:57;;;;;;;;;;;;;;;;;;5103202;28;19920;-67
2022/05/24 14:19:23;;;;;;;;;;;;;;;;;;5104117;28;19952;-67
2022/05/24 14:21:54;;;;;;;;;;;;;;;;;;5103359;28;19920;-67
2022/05/24 14:24:20;;;;;;;;;;;;;;;;;;5101417;28;19958;-67
2022/05/24 14:26:46;;;;;;;;;;;;;;;;;;5101805;28;19920;-66
2022/05/24 14:29:12;;;;;;;;;;;;;;;;;;5101150;28;19927;-67
2022/05/24 14:31:38;;;;;;;;;;;;;;;;;;5087011;28;19921;-67
2022/05/24 14:34:04;;;;;;;;;;;;;;;;;;5089139;28;19927;-67
2022/05/24 14:36:30;;;;;;;;;;;;;;;;;;5097673;28;19939;-67
2022/05/24 14:38:56;;;;;;;;;;;;;;;;;;5078035;28;19928;-67
2022/05/24 14:41:22;;;;;;;;;;;;;;;;;;5096695;28;19920;-67
2022/05/24 14:43:48;;;;;;;;;;;;;;;;;;5091371;28;19927;-63
2022/05/24 14:46:14;;;;;;;;;;;;;;;;;;5091354;28;19971;-66
2022/05/24 14:48:40;;;;;;;;;;;;;;;;;;5093272;28;20339;-65
2022/05/24 14:51:06;;;;;;;;;;;;;;;;;;5111523;27;20003;-64
2022/05/24 14:53:32;;;;;;;;;;;;;;;;;;5093582;28;19928;-63
2022/05/24 14:55:58;;;;;;;;;;;;;;;;;;5072163;28;19928;-71
2022/05/24 14:58:25;;;;;;;;;;;;;;;;;;5094851;28;19919;-65
2022/05/24 15:00:51;;;;;;;;;;;;;;;;;;5090827;28;20300;-65
2022/05/24 15:03:16;;;;;;;;;;;;;;;;;;5088244;28;19919;-67
2022/05/24 15:05:43;;;;;;;;;;;;;;;;;;5098777;28;19963;-67
2022/05/24 15:16:23;;;;;;;;;;;;;;;;;;5078799;28;20028;-67
2022/05/24 15:18:49;;;;;;;;;;;;;;;;;;5094969;28;19931;-68
2022/05/24 15:21:15;;;;;;;;;;;;;;;;;;5094419;28;19928;-66
2022/05/24 15:23:41;;;;;;;;;;;;;;;;;;5094440;28;19924;-67
2022/05/24 15:26:08;;;;;;;;;;;;;;;;;;5094239;28;19955;-67
2022/05/24 15:28:34;;;;;;;;;;;;;;;;;;5094248;28;19955;-67
2022/05/24 15:31:00;;;;;;;;;;;;;;;;;;5088003;28;19924;-68
2022/05/24 15:33:26;;;;;;;;;;;;;;;;;;5091513;28;20453;-68
2022/05/24 15:35:52;;;;;;;;;;;;;;;;;;5095262;28;20179;-67
2022/05/24 15:38:20;;;;;;;;;;;;;;;;;;5083904;28;19919;-68
2022/05/24 15:40:46;;;;;;;;;;;;;;;;;;5105193;28;19974;-69
2022/05/24 15:43:12;;;;;;;;;;;;;;;;;;5092003;28;19920;-68
2022/05/24 15:45:38;;;;;;;;;;;;;;;;;;5098440;28;19927;-68
2022/05/24 15:48:04;;;;;;;;;;;;;;;;;;5095154;28;19924;-68
2022/05/24 15:50:30;;;;;;;;;;;;;;;;;;5102365;28;20065;-69
2022/05/24 15:52:58;;;;;;;;;;;;;;;;;;5104128;28;19928;-68
2022/05/24 15:55:26;;;;;;;;;;;;;;;;;;5102935;28;20023;-68
2022/05/24 15:57:52;;;;;;;;;;;;;;;;;;5101665;28;20015;-67
2022/05/24 16:00:18;;;;;;;;;;;;;;;;;;5090052;28;19920;-67
2022/05/24 16:02:44;;;;;;;;;;;;;;;;;;5090634;28;20863;-68
2022/05/24 16:10:39;;;;;;;;;;;;;;;;;;5086277;28;19921;-68
2022/05/24 16:13:05;;;;;;;;;;;;;;;;;;5102857;28;19949;-68
2022/05/24 16:15:31;;;;;;;;;;;;;;;;;;5086927;28;19928;-68
2022/05/24 16:17:57;;;;;;;;;;;;;;;;;;5085724;28;19927;-68
2022/05/24 16:20:23;;;;;;;;;;;;;;;;;;5105868;28;20390;-68
2022/05/24 16:22:49;;;;;;;;;;;;;;;;;;5100611;28;19927;-68
2022/05/24 16:25:16;;;;;;;;;;;;;;;;;;5107958;28;20011;-68
2022/05/24 16:27:42;;;;;;;;;;;;;;;;;;5102165;28;19924;-68
2022/05/24 16:30:08;;;;;;;;;;;;;;;;;;5105405;28;19926;-67
2022/05/24 16:32:34;;;;;;;;;;;;;;;;;;5104017;28;19920;-68
2022/05/24 16:35:00;;;;;;;;;;;;;;;;;;5105368;28;19938;-69
2022/05/24 16:37:26;;;;;;;;;;;;;;;;;;5098489;28;19939;-69
2022/05/24 16:39:52;;;;;;;;;;;;;;;;;;5101682;28;21051;-68
2022/05/24 16:42:20;;;;;;;;;;;;;;;;;;5081282;28;19947;-68
2022/05/24 16:44:46;;;;;;;;;;;;;;;;;;5095151;28;19929;-69
2022/05/24 16:47:12;;;;;;;;;;;;;;;;;;5093167;28;19915;-68
2022/05/24 16:49:38;;;;;;;;;;;;;;;;;;5104980;28;19991;-67
2022/05/24 16:52:04;;;;;;;;;;;;;;;;;;5098692;28;20017;-68
2022/05/24 17:00:00;;;;;;;;;;;;;;;;;;5113009;28;19980;-68
2022/05/24 17:02:26;;;;;;;;;;;;;;;;;;5088920;28;19919;-68
2022/05/24 17:04:52;;;;;;;;;;;;;;;;;;5105394;28;19965;-67
2022/05/24 17:07:19;;;;;;;;;;;;;;;;;;5112855;28;19971;-68
2022/05/24 17:09:45;;;;;;;;;;;;;;;;;;5100379;28;20386;-68
2022/05/24 17:12:11;;;;;;;;;;;;;;;;;;5095814;28;19974;-68
2022/05/24 17:14:37;;;;;;;;;;;;;;;;;;5102199;28;20373;-67